SJX9716 KPHX-KLAX
Flight info
| Callsign | SJX9716 |
|---|---|
| Flight time | 0h 54m |
| Altitude | 38000 |
| Route | KEENS3 WLVRN DCT ESTWD HLYWD1 |
| Aircraft | A35K/H-L/LB1D1 |
Departure
| Time | 2026-04-20 23:38 |
|---|---|
| Airport | Phoenix Sky Harbor International Airport (KPHX) |
Arrival
| Time | 2026-04-21 00:33 |
|---|---|
| Airport | Los Angeles International Airport (KLAX) |
| Time | Latitude | Longitude | Altitude | Speed | Heading |
|---|---|---|---|---|---|
| 2026-04-20 23:28 | 33.43376 | -112.01954 | 1140 ft | 0 kts | 180° |
| 2026-04-20 23:33 | 33.43379 | -112.01954 | 1140 ft | 2 kts | 180° |
| 2026-04-20 23:33 | 33.43340 | -112.01955 | 1139 ft | 10 kts | 180° |
| 2026-04-20 23:33 | 33.43302 | -112.01949 | 1141 ft | 1 kts | 161° |
| 2026-04-20 23:34 | 33.43298 | -112.01942 | 1141 ft | 2 kts | 131° |
| 2026-04-20 23:34 | 33.43288 | -112.01869 | 1139 ft | 17 kts | 97° |
| 2026-04-20 23:34 | 33.43220 | -112.01758 | 1141 ft | 17 kts | 102° |
| 2026-04-20 23:34 | 33.43216 | -112.01608 | 1139 ft | 19 kts | 90° |
| 2026-04-20 23:35 | 33.43216 | -112.01434 | 1139 ft | 22 kts | 90° |
| 2026-04-20 23:35 | 33.43215 | -112.01033 | 1140 ft | 26 kts | 90° |
| 2026-04-20 23:35 | 33.43215 | -112.00810 | 1140 ft | 28 kts | 90° |
| 2026-04-20 23:36 | 33.43215 | -112.00567 | 1141 ft | 30 kts | 90° |
| 2026-04-20 23:36 | 33.43215 | -112.00310 | 1141 ft | 32 kts | 90° |
| 2026-04-20 23:36 | 33.43215 | -112.00040 | 1141 ft | 33 kts | 90° |
| 2026-04-20 23:36 | 33.43214 | -111.99757 | 1141 ft | 35 kts | 90° |
| 2026-04-20 23:37 | 33.43214 | -111.99462 | 1141 ft | 36 kts | 90° |
| 2026-04-20 23:37 | 33.43171 | -111.99345 | 1144 ft | 12 kts | 167° |
| 2026-04-20 23:37 | 33.43103 | -111.99384 | 1145 ft | 10 kts | 252° |
| 2026-04-20 23:37 | 33.43104 | -111.99504 | 1141 ft | 33 kts | 270° |
| 2026-04-20 23:38 | 33.43104 | -112.00113 | 1142 ft | 111 kts | 270° |
| 2026-04-20 23:38 | 33.43105 | -112.01304 | 1160 ft | 173 kts | 270° |
| 2026-04-20 23:38 | 33.43111 | -112.02715 | 2015 ft | 165 kts | 270° |
| 2026-04-20 23:38 | 33.43014 | -112.04064 | 2570 ft | 168 kts | 261° |
| 2026-04-20 23:39 | 33.42789 | -112.05522 | 2838 ft | 190 kts | 259° |
| 2026-04-20 23:39 | 33.42502 | -112.07163 | 3083 ft | 213 kts | 257° |
| 2026-04-20 23:39 | 33.42147 | -112.08983 | 3317 ft | 237 kts | 256° |
| 2026-04-20 23:39 | 33.41694 | -112.10969 | 3672 ft | 254 kts | 253° |
| 2026-04-20 23:40 | 33.41149 | -112.13002 | 4316 ft | 260 kts | 251° |
| 2026-04-20 23:40 | 33.40533 | -112.15018 | 5059 ft | 260 kts | 250° |
| 2026-04-20 23:40 | 33.39889 | -112.17057 | 5719 ft | 265 kts | 250° |
| 2026-04-20 23:40 | 33.39316 | -112.19154 | 6399 ft | 268 kts | 258° |
| 2026-04-20 23:41 | 33.39275 | -112.21384 | 7087 ft | 271 kts | 275° |
| 2026-04-20 23:41 | 33.39581 | -112.23640 | 7659 ft | 279 kts | 278° |
| 2026-04-20 23:41 | 33.39945 | -112.25961 | 8208 ft | 287 kts | 277° |
| 2026-04-20 23:41 | 33.40308 | -112.28329 | 8832 ft | 293 kts | 277° |
| 2026-04-20 23:42 | 33.40677 | -112.30732 | 9481 ft | 297 kts | 277° |
| 2026-04-20 23:42 | 33.41047 | -112.33180 | 10102 ft | 302 kts | 277° |
| 2026-04-20 23:42 | 33.41424 | -112.35709 | 10409 ft | 318 kts | 277° |
| 2026-04-20 23:42 | 33.41820 | -112.38379 | 10645 ft | 336 kts | 277° |
| 2026-04-20 23:43 | 33.42236 | -112.41193 | 10912 ft | 350 kts | 277° |
| 2026-04-20 23:43 | 33.42664 | -112.44088 | 11393 ft | 356 kts | 278° |
| 2026-04-20 23:43 | 33.43097 | -112.47017 | 11955 ft | 359 kts | 278° |
| 2026-04-20 23:43 | 33.43532 | -112.49974 | 12515 ft | 362 kts | 279° |
| 2026-04-20 23:44 | 33.43971 | -112.52951 | 13086 ft | 365 kts | 278° |
| 2026-04-20 23:44 | 33.44414 | -112.55961 | 13623 ft | 368 kts | 279° |
| 2026-04-20 23:44 | 33.44843 | -112.58977 | 14246 ft | 367 kts | 278° |
| 2026-04-20 23:44 | 33.45053 | -112.62023 | 14772 ft | 368 kts | 271° |
| 2026-04-20 23:45 | 33.45109 | -112.65097 | 15285 ft | 370 kts | 270° |
| 2026-04-20 23:45 | 33.45142 | -112.68183 | 15835 ft | 371 kts | 270° |
| 2026-04-20 23:45 | 33.45175 | -112.71234 | 16376 ft | 373 kts | 270° |
| 2026-04-20 23:45 | 33.45212 | -112.74351 | 16907 ft | 375 kts | 270° |
| 2026-04-20 23:46 | 33.45278 | -112.77469 | 17477 ft | 376 kts | 272° |
| 2026-04-20 23:46 | 33.45662 | -112.80572 | 18015 ft | 379 kts | 282° |
| 2026-04-20 23:46 | 33.46506 | -112.83580 | 18518 ft | 382 kts | 290° |
| 2026-04-20 23:46 | 33.47529 | -112.86525 | 18972 ft | 384 kts | 291° |
| 2026-04-20 23:47 | 33.48584 | -112.89478 | 19359 ft | 387 kts | 291° |
| 2026-04-20 23:47 | 33.49637 | -112.92456 | 19811 ft | 388 kts | 291° |
| 2026-04-20 23:47 | 33.50685 | -112.95436 | 20331 ft | 388 kts | 291° |
| 2026-04-20 23:47 | 33.51731 | -112.98418 | 20766 ft | 390 kts | 291° |
| 2026-04-20 23:48 | 33.52785 | -113.01429 | 21157 ft | 393 kts | 291° |
| 2026-04-20 23:48 | 33.53844 | -113.04462 | 21584 ft | 395 kts | 291° |
| 2026-04-20 23:48 | 33.54907 | -113.07511 | 21960 ft | 398 kts | 292° |
| 2026-04-20 23:48 | 33.55977 | -113.10583 | 22392 ft | 400 kts | 292° |
| 2026-04-20 23:49 | 33.57051 | -113.13668 | 22792 ft | 402 kts | 291° |
| 2026-04-20 23:49 | 33.58122 | -113.16750 | 23346 ft | 400 kts | 291° |
| 2026-04-20 23:49 | 33.59195 | -113.19837 | 23700 ft | 402 kts | 291° |
| 2026-04-20 23:49 | 33.60274 | -113.22949 | 23948 ft | 406 kts | 291° |
| 2026-04-20 23:50 | 33.60994 | -113.25024 | 24099 ft | 409 kts | 291° |
| 2026-04-20 23:50 | 33.62092 | -113.28191 | 24414 ft | 411 kts | 291° |
| 2026-04-20 23:50 | 33.63188 | -113.31361 | 24742 ft | 412 kts | 291° |
| 2026-04-20 23:50 | 33.64640 | -113.35561 | 25267 ft | 412 kts | 291° |
| 2026-04-20 23:51 | 33.65740 | -113.38748 | 25536 ft | 415 kts | 291° |
| 2026-04-20 23:51 | 33.66843 | -113.41949 | 25808 ft | 417 kts | 291° |
| 2026-04-20 23:51 | 33.67960 | -113.45190 | 26000 ft | 423 kts | 291° |
| 2026-04-20 23:51 | 33.69088 | -113.48472 | 26245 ft | 426 kts | 291° |
| 2026-04-20 23:52 | 33.69853 | -113.50696 | 26464 ft | 427 kts | 291° |
| 2026-04-20 23:52 | 33.70991 | -113.54008 | 26801 ft | 429 kts | 291° |
| 2026-04-20 23:52 | 33.72130 | -113.57325 | 27148 ft | 431 kts | 290° |
| 2026-04-20 23:52 | 33.73275 | -113.60664 | 27499 ft | 433 kts | 290° |
| 2026-04-20 23:53 | 33.74423 | -113.64017 | 27822 ft | 436 kts | 290° |
| 2026-04-20 23:53 | 33.75578 | -113.67392 | 28199 ft | 438 kts | 290° |
| 2026-04-20 23:53 | 33.76738 | -113.70788 | 28573 ft | 440 kts | 290° |
| 2026-04-20 23:53 | 33.77889 | -113.74158 | 28929 ft | 443 kts | 290° |
| 2026-04-20 23:54 | 33.79060 | -113.77590 | 29299 ft | 446 kts | 290° |
| 2026-04-20 23:54 | 33.80254 | -113.81096 | 29658 ft | 449 kts | 290° |
| 2026-04-20 23:54 | 33.81439 | -113.84576 | 30038 ft | 451 kts | 290° |
| 2026-04-20 23:54 | 33.82607 | -113.88010 | 30369 ft | 453 kts | 290° |
| 2026-04-20 23:55 | 33.83803 | -113.91526 | 30720 ft | 455 kts | 290° |
| 2026-04-20 23:55 | 33.85005 | -113.95066 | 31025 ft | 459 kts | 290° |
| 2026-04-20 23:55 | 33.86215 | -113.98634 | 31366 ft | 462 kts | 290° |
| 2026-04-20 23:55 | 33.87428 | -114.02214 | 31710 ft | 464 kts | 290° |
| 2026-04-20 23:56 | 33.88651 | -114.05829 | 32052 ft | 467 kts | 290° |
| 2026-04-20 23:56 | 33.89861 | -114.09454 | 32463 ft | 466 kts | 288° |
| 2026-04-20 23:56 | 33.90811 | -114.13181 | 32906 ft | 464 kts | 281° |
| 2026-04-20 23:56 | 33.91501 | -114.16977 | 33220 ft | 466 kts | 279° |
| 2026-04-20 23:57 | 33.92147 | -114.20809 | 33512 ft | 468 kts | 279° |
| 2026-04-20 23:57 | 33.92793 | -114.24658 | 33817 ft | 470 kts | 279° |
| 2026-04-20 23:57 | 33.93444 | -114.28526 | 34089 ft | 472 kts | 279° |
| 2026-04-20 23:57 | 33.94098 | -114.32407 | 34353 ft | 474 kts | 279° |
| 2026-04-20 23:58 | 33.94754 | -114.36301 | 34637 ft | 475 kts | 279° |
| 2026-04-20 23:58 | 33.95404 | -114.40163 | 35111 ft | 471 kts | 279° |
| 2026-04-20 23:58 | 33.96048 | -114.43989 | 35816 ft | 462 kts | 279° |
| 2026-04-20 23:58 | 33.96683 | -114.47769 | 36235 ft | 462 kts | 279° |
| 2026-04-20 23:59 | 33.97321 | -114.51587 | 36327 ft | 468 kts | 279° |
| 2026-04-20 23:59 | 33.97964 | -114.55438 | 36644 ft | 468 kts | 279° |
| 2026-04-20 23:59 | 33.98604 | -114.59271 | 37081 ft | 466 kts | 279° |
| 2026-04-20 23:59 | 33.99240 | -114.63091 | 37528 ft | 464 kts | 279° |
| 2026-04-21 00:00 | 33.99873 | -114.66902 | 37833 ft | 464 kts | 278° |
| 2026-04-21 00:00 | 34.01118 | -114.74415 | 37874 ft | 457 kts | 278° |
| 2026-04-21 00:01 | 34.02357 | -114.81926 | 37885 ft | 457 kts | 278° |
| 2026-04-21 00:01 | 34.03583 | -114.89392 | 37868 ft | 457 kts | 278° |
| 2026-04-21 00:02 | 34.04813 | -114.96908 | 37885 ft | 457 kts | 278° |
| 2026-04-21 00:02 | 34.06042 | -115.04425 | 37885 ft | 456 kts | 278° |
| 2026-04-21 00:03 | 34.07260 | -115.11902 | 37887 ft | 454 kts | 278° |
| 2026-04-21 00:03 | 34.08475 | -115.19404 | 37886 ft | 456 kts | 278° |
| 2026-04-21 00:04 | 34.09690 | -115.26925 | 37895 ft | 457 kts | 278° |
| 2026-04-21 00:04 | 34.10802 | -115.33835 | 37897 ft | 457 kts | 278° |
| 2026-04-21 00:05 | 34.12004 | -115.41330 | 37892 ft | 453 kts | 277° |
| 2026-04-21 00:05 | 34.13195 | -115.48792 | 37892 ft | 453 kts | 277° |
| 2026-04-21 00:06 | 34.14381 | -115.56251 | 37903 ft | 452 kts | 277° |
| 2026-04-21 00:06 | 34.15563 | -115.63716 | 37892 ft | 453 kts | 277° |
| 2026-04-21 00:07 | 34.16121 | -115.71205 | 37903 ft | 444 kts | 263° |
| 2026-04-21 00:07 | 34.15478 | -115.78599 | 37920 ft | 444 kts | 261° |
| 2026-04-21 00:08 | 34.14751 | -115.85984 | 37613 ft | 439 kts | 261° |
| 2026-04-21 00:08 | 34.14392 | -115.89646 | 36794 ft | 441 kts | 261° |
| 2026-04-21 00:08 | 34.14031 | -115.93322 | 36108 ft | 441 kts | 261° |
| 2026-04-21 00:08 | 34.13671 | -115.96996 | 35466 ft | 441 kts | 261° |
| 2026-04-21 00:09 | 34.13344 | -116.00340 | 34985 ft | 438 kts | 261° |
| 2026-04-21 00:09 | 34.12993 | -116.03970 | 34509 ft | 434 kts | 261° |
| 2026-04-21 00:09 | 34.12639 | -116.07570 | 34012 ft | 430 kts | 261° |
| 2026-04-21 00:09 | 34.12286 | -116.11146 | 33471 ft | 427 kts | 261° |
| 2026-04-21 00:10 | 34.11937 | -116.14682 | 32964 ft | 423 kts | 261° |
| 2026-04-21 00:10 | 34.11591 | -116.18184 | 32486 ft | 418 kts | 261° |
| 2026-04-21 00:10 | 34.11247 | -116.21652 | 32003 ft | 414 kts | 261° |
| 2026-04-21 00:10 | 34.10906 | -116.25080 | 31473 ft | 410 kts | 260° |
| 2026-04-21 00:11 | 34.10566 | -116.28483 | 30999 ft | 407 kts | 261° |
| 2026-04-21 00:11 | 34.10288 | -116.31267 | 30618 ft | 406 kts | 261° |
| 2026-04-21 00:11 | 34.09941 | -116.34578 | 30146 ft | 404 kts | 260° |
| 2026-04-21 00:11 | 34.09569 | -116.38008 | 29622 ft | 402 kts | 260° |
| 2026-04-21 00:12 | 34.09208 | -116.41345 | 29145 ft | 399 kts | 259° |
| 2026-04-21 00:12 | 34.08851 | -116.44652 | 28682 ft | 396 kts | 260° |
| 2026-04-21 00:12 | 34.08496 | -116.47942 | 28220 ft | 394 kts | 259° |
| 2026-04-21 00:12 | 34.08144 | -116.51203 | 27763 ft | 391 kts | 260° |
| 2026-04-21 00:13 | 34.07793 | -116.54446 | 27321 ft | 388 kts | 259° |
| 2026-04-21 00:13 | 34.07448 | -116.57636 | 26956 ft | 381 kts | 260° |
| 2026-04-21 00:13 | 34.07114 | -116.60799 | 26477 ft | 379 kts | 260° |
| 2026-04-21 00:13 | 34.06822 | -116.63952 | 26042 ft | 377 kts | 261° |
| 2026-04-21 00:14 | 34.06540 | -116.67090 | 25582 ft | 375 kts | 261° |
| 2026-04-21 00:14 | 34.06256 | -116.70204 | 25127 ft | 373 kts | 261° |
| 2026-04-21 00:14 | 34.05979 | -116.73216 | 24686 ft | 371 kts | 260° |
| 2026-04-21 00:14 | 34.05689 | -116.76340 | 24244 ft | 369 kts | 260° |
| 2026-04-21 00:15 | 34.05402 | -116.79409 | 23782 ft | 368 kts | 260° |
| 2026-04-21 00:15 | 34.05116 | -116.82467 | 23291 ft | 367 kts | 260° |
| 2026-04-21 00:15 | 34.04829 | -116.85513 | 22802 ft | 364 kts | 260° |
| 2026-04-21 00:15 | 34.04546 | -116.88534 | 22370 ft | 361 kts | 260° |
| 2026-04-21 00:16 | 34.04228 | -116.91519 | 21910 ft | 357 kts | 258° |
| 2026-04-21 00:16 | 34.03834 | -116.94466 | 21455 ft | 354 kts | 257° |
| 2026-04-21 00:16 | 34.03436 | -116.97388 | 20999 ft | 352 kts | 257° |
| 2026-04-21 00:16 | 34.03047 | -117.00292 | 20560 ft | 350 kts | 257° |
| 2026-04-21 00:17 | 34.02665 | -117.03182 | 20112 ft | 348 kts | 258° |
| 2026-04-21 00:17 | 34.02307 | -117.06054 | 19671 ft | 346 kts | 258° |
| 2026-04-21 00:17 | 34.01975 | -117.08880 | 19231 ft | 344 kts | 258° |
| 2026-04-21 00:17 | 34.01640 | -117.11732 | 18784 ft | 343 kts | 258° |
| 2026-04-21 00:18 | 34.01306 | -117.14567 | 18334 ft | 342 kts | 258° |
| 2026-04-21 00:18 | 34.00970 | -117.17394 | 17829 ft | 341 kts | 258° |
| 2026-04-21 00:18 | 34.00636 | -117.20205 | 17368 ft | 338 kts | 258° |
| 2026-04-21 00:18 | 34.00301 | -117.23011 | 16932 ft | 334 kts | 258° |
| 2026-04-21 00:19 | 33.99977 | -117.25723 | 16512 ft | 331 kts | 258° |
| 2026-04-21 00:19 | 33.99652 | -117.28446 | 16094 ft | 328 kts | 258° |
| 2026-04-21 00:19 | 33.99322 | -117.31194 | 15659 ft | 326 kts | 258° |
| 2026-04-21 00:19 | 33.99010 | -117.33853 | 15246 ft | 324 kts | 259° |
| 2026-04-21 00:20 | 33.98695 | -117.36532 | 14823 ft | 322 kts | 259° |
| 2026-04-21 00:20 | 33.98381 | -117.39194 | 14406 ft | 320 kts | 259° |
| 2026-04-21 00:20 | 33.98071 | -117.41836 | 13982 ft | 318 kts | 259° |
| 2026-04-21 00:20 | 33.97761 | -117.44458 | 13549 ft | 315 kts | 259° |
| 2026-04-21 00:21 | 33.97460 | -117.47057 | 13234 ft | 309 kts | 259° |
| 2026-04-21 00:21 | 33.97422 | -117.49606 | 13026 ft | 304 kts | 272° |
| 2026-04-21 00:21 | 33.97779 | -117.52110 | 12639 ft | 303 kts | 278° |
| 2026-04-21 00:21 | 33.98228 | -117.54578 | 12271 ft | 301 kts | 278° |
| 2026-04-21 00:22 | 33.98677 | -117.57026 | 11885 ft | 300 kts | 278° |
| 2026-04-21 00:22 | 33.99119 | -117.59473 | 11517 ft | 299 kts | 278° |
| 2026-04-21 00:22 | 33.99554 | -117.61902 | 11146 ft | 299 kts | 278° |
| 2026-04-21 00:22 | 33.99986 | -117.64328 | 10776 ft | 298 kts | 278° |
| 2026-04-21 00:23 | 34.00410 | -117.66749 | 10402 ft | 297 kts | 277° |
| 2026-04-21 00:23 | 34.00577 | -117.69196 | 10095 ft | 292 kts | 263° |
| 2026-04-21 00:23 | 34.00394 | -117.71565 | 9964 ft | 279 kts | 259° |
| 2026-04-21 00:23 | 34.00162 | -117.73888 | 9817 ft | 285 kts | 259° |
| 2026-04-21 00:24 | 33.99926 | -117.76217 | 9593 ft | 288 kts | 259° |
| 2026-04-21 00:24 | 33.99685 | -117.78640 | 9187 ft | 288 kts | 259° |
| 2026-04-21 00:24 | 33.99450 | -117.81019 | 8784 ft | 285 kts | 259° |
| 2026-04-21 00:24 | 33.99220 | -117.83378 | 8438 ft | 283 kts | 259° |
| 2026-04-21 00:25 | 33.98992 | -117.85709 | 8107 ft | 281 kts | 260° |
| 2026-04-21 00:25 | 33.98763 | -117.88042 | 7782 ft | 281 kts | 260° |
| 2026-04-21 00:25 | 33.98682 | -117.90386 | 7444 ft | 284 kts | 277° |
| 2026-04-21 00:25 | 33.98926 | -117.92732 | 7113 ft | 281 kts | 264° |
| 2026-04-21 00:26 | 33.98537 | -117.94996 | 6826 ft | 275 kts | 250° |
| 2026-04-21 00:26 | 33.98055 | -117.97214 | 6481 ft | 274 kts | 253° |
| 2026-04-21 00:26 | 33.97718 | -117.99468 | 6149 ft | 274 kts | 258° |
| 2026-04-21 00:26 | 33.97474 | -118.01743 | 5807 ft | 274 kts | 261° |
| 2026-04-21 00:27 | 33.97248 | -118.04002 | 5482 ft | 271 kts | 261° |
| 2026-04-21 00:27 | 33.97022 | -118.06244 | 5175 ft | 269 kts | 262° |
| 2026-04-21 00:27 | 33.96801 | -118.08473 | 4878 ft | 268 kts | 262° |
| 2026-04-21 00:27 | 33.96579 | -118.10676 | 4560 ft | 264 kts | 261° |
| 2026-04-21 00:28 | 33.96357 | -118.12822 | 4224 ft | 259 kts | 261° |
| 2026-04-21 00:28 | 33.96135 | -118.14944 | 3882 ft | 255 kts | 262° |
| 2026-04-21 00:28 | 33.95922 | -118.17038 | 3541 ft | 250 kts | 261° |
| 2026-04-21 00:28 | 33.95713 | -118.19064 | 3225 ft | 246 kts | 262° |
| 2026-04-21 00:29 | 33.95506 | -118.21076 | 2893 ft | 239 kts | 262° |
| 2026-04-21 00:29 | 33.95309 | -118.22997 | 2588 ft | 222 kts | 262° |
| 2026-04-21 00:29 | 33.95127 | -118.24765 | 2327 ft | 204 kts | 262° |
| 2026-04-21 00:29 | 33.94961 | -118.26388 | 2066 ft | 191 kts | 262° |
| 2026-04-21 00:30 | 33.94808 | -118.27876 | 1820 ft | 171 kts | 261° |
| 2026-04-21 00:30 | 33.94669 | -118.29237 | 1592 ft | 159 kts | 261° |
| 2026-04-21 00:30 | 33.94538 | -118.30511 | 1371 ft | 147 kts | 260° |
| 2026-04-21 00:30 | 33.94418 | -118.31669 | 1193 ft | 134 kts | 261° |
| 2026-04-21 00:31 | 33.94307 | -118.32759 | 1017 ft | 131 kts | 261° |
| 2026-04-21 00:31 | 33.94194 | -118.33838 | 840 ft | 129 kts | 262° |
| 2026-04-21 00:31 | 33.94088 | -118.34865 | 674 ft | 127 kts | 262° |
| 2026-04-21 00:31 | 33.93980 | -118.35912 | 531 ft | 131 kts | 264° |
| 2026-04-21 00:32 | 33.93868 | -118.37000 | 325 ft | 126 kts | 265° |
| 2026-04-21 00:32 | 33.93755 | -118.38026 | 192 ft | 124 kts | 264° |
| 2026-04-21 00:32 | 33.93660 | -118.38976 | 100 ft | 112 kts | 264° |
| 2026-04-21 00:32 | 33.93587 | -118.39740 | 100 ft | 65 kts | 263° |
| 2026-04-21 00:33 | 33.93547 | -118.40134 | 102 ft | 40 kts | 263° |
| 2026-04-21 00:33 | 33.93541 | -118.40448 | 104 ft | 35 kts | 281° |
| 2026-04-21 00:33 | 33.93596 | -118.40697 | 103 ft | 27 kts | 271° |
| 2026-04-21 00:33 | 33.93632 | -118.40895 | 102 ft | 10 kts | 313° |
| 2026-04-21 00:34 | 33.93696 | -118.40902 | 103 ft | 18 kts | 355° |
| 2026-04-21 00:34 | 33.93818 | -118.40917 | 100 ft | 0 kts | 353° |
| 2026-04-21 00:35 | 33.93819 | -118.40918 | 100 ft | 1 kts | 353° |
| 2026-04-21 00:35 | 33.93849 | -118.40928 | 101 ft | 6 kts | 328° |
| 2026-04-21 00:35 | 33.93862 | -118.40978 | 103 ft | 8 kts | 272° |
| 2026-04-21 00:35 | 33.93854 | -118.41059 | 101 ft | 12 kts | 263° |
| 2026-04-21 00:36 | 33.93841 | -118.41178 | 99 ft | 16 kts | 263° |
| 2026-04-21 00:36 | 33.93880 | -118.41262 | 100 ft | 13 kts | 345° |
| 2026-04-21 00:36 | 33.93981 | -118.41279 | 100 ft | 17 kts | 353° |
| 2026-04-21 00:36 | 33.94109 | -118.41297 | 100 ft | 20 kts | 353° |
| 2026-04-21 00:37 | 33.94191 | -118.41339 | 101 ft | 8 kts | 299° |
| 2026-04-21 00:37 | 33.94187 | -118.41382 | 102 ft | 6 kts | 262° |
| 2026-04-21 00:37 | 33.94186 | -118.41391 | 102 ft | 0 kts | 262° |
| 2026-04-21 00:37 | 33.94186 | -118.41395 | 102 ft | 2 kts | 263° |
| 2026-04-21 00:38 | 33.94184 | -118.41415 | 99 ft | 1 kts | 263° |
| 2026-04-21 00:38 | 33.94183 | -118.41418 | 99 ft | 0 kts | 263° |